sensor_id;sensor_type;location;lat;lon;timestamp;P1;durP1;ratioP1;P2;durP2;ratioP2
46407;SDS011;32110;45.724;21.276;2023-03-22T00:01:17;54.25;;;22.58;;
46407;SDS011;32110;45.724;21.276;2023-03-22T00:03:45;53.25;;;22.63;;
46407;SDS011;32110;45.724;21.276;2023-03-22T00:06:11;52.65;;;22.10;;
46407;SDS011;32110;45.724;21.276;2023-03-22T00:08:37;52.05;;;22.08;;
46407;SDS011;32110;45.724;21.276;2023-03-22T00:11:03;52.75;;;22.42;;
46407;SDS011;32110;45.724;21.276;2023-03-22T00:13:30;51.80;;;22.02;;
46407;SDS011;32110;45.724;21.276;2023-03-22T00:15:56;45.38;;;21.65;;
46407;SDS011;32110;45.724;21.276;2023-03-22T00:18:24;55.17;;;22.00;;
46407;SDS011;32110;45.724;21.276;2023-03-22T00:20:50;38.95;;;19.90;;
46407;SDS011;32110;45.724;21.276;2023-03-22T00:23:17;41.28;;;19.58;;
46407;SDS011;32110;45.724;21.276;2023-03-22T00:25:43;34.67;;;19.17;;
46407;SDS011;32110;45.724;21.276;2023-03-22T00:28:10;33.97;;;19.05;;
46407;SDS011;32110;45.724;21.276;2023-03-22T00:30:37;33.35;;;18.88;;
46407;SDS011;32110;45.724;21.276;2023-03-22T00:33:02;35.03;;;18.40;;
46407;SDS011;32110;45.724;21.276;2023-03-22T00:35:28;29.08;;;18.05;;
46407;SDS011;32110;45.724;21.276;2023-03-22T00:37:53;42.58;;;20.67;;
46407;SDS011;32110;45.724;21.276;2023-03-22T00:40:19;39.75;;;22.45;;
46407;SDS011;32110;45.724;21.276;2023-03-22T00:42:44;38.67;;;22.95;;
46407;SDS011;32110;45.724;21.276;2023-03-22T00:45:10;36.50;;;21.95;;
46407;SDS011;32110;45.724;21.276;2023-03-22T00:47:36;36.20;;;21.92;;
46407;SDS011;32110;45.724;21.276;2023-03-22T00:50:02;56.20;;;27.10;;
46407;SDS011;32110;45.724;21.276;2023-03-22T00:52:29;44.05;;;22.73;;
46407;SDS011;32110;45.724;21.276;2023-03-22T00:54:55;39.20;;;21.55;;
46407;SDS011;32110;45.724;21.276;2023-03-22T00:57:21;39.67;;;21.33;;
46407;SDS011;32110;45.724;21.276;2023-03-22T00:59:46;39.13;;;21.15;;
46407;SDS011;32110;45.724;21.276;2023-03-22T01:02:12;40.60;;;21.30;;
46407;SDS011;32110;45.724;21.276;2023-03-22T01:04:39;37.15;;;21.48;;
46407;SDS011;32110;45.724;21.276;2023-03-22T01:07:10;42.50;;;23.70;;
46407;SDS011;32110;45.724;21.276;2023-03-22T01:09:41;49.75;;;23.88;;
46407;SDS011;32110;45.724;21.276;2023-03-22T01:12:07;43.22;;;22.73;;
46407;SDS011;32110;45.724;21.276;2023-03-22T01:14:33;42.40;;;21.70;;
46407;SDS011;32110;45.724;21.276;2023-03-22T01:16:58;37.58;;;21.35;;
46407;SDS011;32110;45.724;21.276;2023-03-22T01:19:24;35.15;;;20.88;;
46407;SDS011;32110;45.724;21.276;2023-03-22T01:21:51;34.80;;;19.67;;
46407;SDS011;32110;45.724;21.276;2023-03-22T01:24:17;33.80;;;19.63;;
46407;SDS011;32110;45.724;21.276;2023-03-22T01:26:43;33.75;;;19.50;;
46407;SDS011;32110;45.724;21.276;2023-03-22T01:29:08;32.70;;;19.50;;
46407;SDS011;32110;45.724;21.276;2023-03-22T01:31:34;34.30;;;19.85;;
46407;SDS011;32110;45.724;21.276;2023-03-22T01:34:00;31.80;;;18.35;;
46407;SDS011;32110;45.724;21.276;2023-03-22T01:36:25;34.10;;;18.15;;
46407;SDS011;32110;45.724;21.276;2023-03-22T01:38:50;33.83;;;20.08;;
46407;SDS011;32110;45.724;21.276;2023-03-22T01:41:16;31.95;;;18.77;;
46407;SDS011;32110;45.724;21.276;2023-03-22T01:43:42;29.70;;;19.13;;
46407;SDS011;32110;45.724;21.276;2023-03-22T01:46:07;32.75;;;19.80;;
46407;SDS011;32110;45.724;21.276;2023-03-22T01:48:39;31.67;;;18.42;;
46407;SDS011;32110;45.724;21.276;2023-03-22T01:51:17;28.23;;;17.17;;
46407;SDS011;32110;45.724;21.276;2023-03-22T01:53:47;29.98;;;17.45;;
46407;SDS011;32110;45.724;21.276;2023-03-22T02:01:11;28.98;;;16.98;;
46407;SDS011;32110;45.724;21.276;2023-03-22T02:03:39;28.05;;;17.38;;
46407;SDS011;32110;45.724;21.276;2023-03-22T02:06:11;28.67;;;18.13;;
46407;SDS011;32110;45.724;21.276;2023-03-22T02:08:37;30.38;;;17.13;;
46407;SDS011;32110;45.724;21.276;2023-03-22T02:11:04;27.02;;;16.83;;
46407;SDS011;32110;45.724;21.276;2023-03-22T02:18:58;26.05;;;15.88;;
46407;SDS011;32110;45.724;21.276;2023-03-22T02:21:59;28.27;;;16.58;;
46407;SDS011;32110;45.724;21.276;2023-03-22T02:45:20;24.42;;;15.63;;
46407;SDS011;32110;45.724;21.276;2023-03-22T02:48:00;26.38;;;15.00;;
46407;SDS011;32110;45.724;21.276;2023-03-22T02:50:49;24.00;;;15.02;;
46407;SDS011;32110;45.724;21.276;2023-03-22T02:53:23;35.42;;;19.33;;
46407;SDS011;32110;45.724;21.276;2023-03-22T02:56:36;39.05;;;21.77;;
46407;SDS011;32110;45.724;21.276;2023-03-22T02:59:19;29.92;;;16.73;;
46407;SDS011;32110;45.724;21.276;2023-03-22T03:01:49;27.47;;;15.57;;
46407;SDS011;32110;45.724;21.276;2023-03-22T03:04:20;26.52;;;15.25;;
46407;SDS011;32110;45.724;21.276;2023-03-22T03:06:51;27.80;;;15.05;;
46407;SDS011;32110;45.724;21.276;2023-03-22T03:09:21;26.40;;;16.77;;
46407;SDS011;32110;45.724;21.276;2023-03-22T03:11:48;26.13;;;16.58;;
46407;SDS011;32110;45.724;21.276;2023-03-22T03:14:23;25.30;;;15.77;;
46407;SDS011;32110;45.724;21.276;2023-03-22T03:33:40;24.33;;;14.63;;
46407;SDS011;32110;45.724;21.276;2023-03-22T03:36:21;25.00;;;15.00;;
46407;SDS011;32110;45.724;21.276;2023-03-22T03:38:49;24.63;;;15.82;;
46407;SDS011;32110;45.724;21.276;2023-03-22T03:41:22;27.50;;;15.75;;
46407;SDS011;32110;45.724;21.276;2023-03-22T03:43:48;24.55;;;14.93;;
46407;SDS011;32110;45.724;21.276;2023-03-22T03:46:15;27.63;;;15.85;;
46407;SDS011;32110;45.724;21.276;2023-03-22T03:48:41;26.63;;;15.65;;
46407;SDS011;32110;45.724;21.276;2023-03-22T03:51:08;25.23;;;14.55;;
46407;SDS011;32110;45.724;21.276;2023-03-22T03:53:34;26.25;;;14.65;;
46407;SDS011;32110;45.724;21.276;2023-03-22T03:55:59;27.30;;;15.48;;
46407;SDS011;32110;45.724;21.276;2023-03-22T03:58:25;24.42;;;15.00;;
46407;SDS011;32110;45.724;21.276;2023-03-22T04:00:50;27.23;;;16.30;;
46407;SDS011;32110;45.724;21.276;2023-03-22T04:03:15;26.17;;;14.75;;
46407;SDS011;32110;45.724;21.276;2023-03-22T04:05:41;27.10;;;14.65;;
46407;SDS011;32110;45.724;21.276;2023-03-22T04:08:06;22.60;;;14.43;;
46407;SDS011;32110;45.724;21.276;2023-03-22T04:10:31;23.00;;;14.23;;
46407;SDS011;32110;45.724;21.276;2023-03-22T04:12:57;22.87;;;13.40;;
46407;SDS011;32110;45.724;21.276;2023-03-22T04:15:22;22.97;;;13.83;;
46407;SDS011;32110;45.724;21.276;2023-03-22T04:17:48;25.15;;;14.10;;
46407;SDS011;32110;45.724;21.276;2023-03-22T04:20:13;20.02;;;12.60;;
46407;SDS011;32110;45.724;21.276;2023-03-22T04:22:39;23.10;;;13.32;;
46407;SDS011;32110;45.724;21.276;2023-03-22T04:25:06;21.65;;;13.68;;
46407;SDS011;32110;45.724;21.276;2023-03-22T04:27:35;22.40;;;12.85;;
46407;SDS011;32110;45.724;21.276;2023-03-22T04:30:01;23.17;;;13.45;;
46407;SDS011;32110;45.724;21.276;2023-03-22T04:32:26;21.83;;;13.55;;
46407;SDS011;32110;45.724;21.276;2023-03-22T04:34:52;24.05;;;13.93;;
46407;SDS011;32110;45.724;21.276;2023-03-22T04:37:18;22.08;;;13.27;;
46407;SDS011;32110;45.724;21.276;2023-03-22T04:39:46;23.42;;;13.70;;
46407;SDS011;32110;45.724;21.276;2023-03-22T04:42:11;22.03;;;13.27;;
46407;SDS011;32110;45.724;21.276;2023-03-22T04:44:37;22.27;;;13.53;;
46407;SDS011;32110;45.724;21.276;2023-03-22T04:47:02;20.73;;;13.00;;
46407;SDS011;32110;45.724;21.276;2023-03-22T04:49:27;24.98;;;13.32;;
46407;SDS011;32110;45.724;21.276;2023-03-22T04:51:53;22.33;;;13.30;;
46407;SDS011;32110;45.724;21.276;2023-03-22T04:54:18;21.83;;;12.95;;
46407;SDS011;32110;45.724;21.276;2023-03-22T04:56:44;21.37;;;12.97;;
46407;SDS011;32110;45.724;21.276;2023-03-22T04:59:09;28.20;;;14.20;;
46407;SDS011;32110;45.724;21.276;2023-03-22T05:01:34;27.25;;;14.48;;
46407;SDS011;32110;45.724;21.276;2023-03-22T05:04:01;24.00;;;13.60;;
46407;SDS011;32110;45.724;21.276;2023-03-22T05:06:27;24.02;;;13.48;;
46407;SDS011;32110;45.724;21.276;2023-03-22T05:08:52;25.23;;;13.48;;
46407;SDS011;32110;45.724;21.276;2023-03-22T05:11:18;24.40;;;13.50;;
46407;SDS011;32110;45.724;21.276;2023-03-22T05:13:44;26.08;;;13.52;;
46407;SDS011;32110;45.724;21.276;2023-03-22T05:16:10;23.00;;;13.18;;
46407;SDS011;32110;45.724;21.276;2023-03-22T05:18:36;22.38;;;13.73;;
46407;SDS011;32110;45.724;21.276;2023-03-22T05:21:12;23.92;;;13.48;;
46407;SDS011;32110;45.724;21.276;2023-03-22T05:23:43;27.25;;;15.30;;
46407;SDS011;32110;45.724;21.276;2023-03-22T05:26:09;29.80;;;14.90;;
46407;SDS011;32110;45.724;21.276;2023-03-22T05:28:39;29.38;;;14.68;;
46407;SDS011;32110;45.724;21.276;2023-03-22T05:31:05;28.70;;;15.73;;
46407;SDS011;32110;45.724;21.276;2023-03-22T05:33:32;29.00;;;15.27;;
46407;SDS011;32110;45.724;21.276;2023-03-22T05:35:58;24.45;;;15.30;;
46407;SDS011;32110;45.724;21.276;2023-03-22T05:38:25;28.08;;;15.73;;
46407;SDS011;32110;45.724;21.276;2023-03-22T05:40:51;23.02;;;14.75;;
46407;SDS011;32110;45.724;21.276;2023-03-22T05:43:17;30.10;;;15.18;;
46407;SDS011;32110;45.724;21.276;2023-03-22T05:45:42;27.20;;;13.85;;
46407;SDS011;32110;45.724;21.276;2023-03-22T05:48:09;25.08;;;14.80;;
46407;SDS011;32110;45.724;21.276;2023-03-22T05:50:35;24.58;;;13.95;;
46407;SDS011;32110;45.724;21.276;2023-03-22T05:53:00;22.65;;;14.23;;
46407;SDS011;32110;45.724;21.276;2023-03-22T05:55:26;30.80;;;14.00;;
46407;SDS011;32110;45.724;21.276;2023-03-22T05:57:51;25.98;;;14.60;;
46407;SDS011;32110;45.724;21.276;2023-03-22T06:00:18;22.08;;;13.63;;
46407;SDS011;32110;45.724;21.276;2023-03-22T06:02:45;27.65;;;14.65;;
46407;SDS011;32110;45.724;21.276;2023-03-22T06:05:13;30.25;;;13.55;;
46407;SDS011;32110;45.724;21.276;2023-03-22T06:07:40;24.55;;;12.90;;
46407;SDS011;32110;45.724;21.276;2023-03-22T06:10:06;23.30;;;13.50;;
46407;SDS011;32110;45.724;21.276;2023-03-22T06:12:35;22.65;;;13.23;;
46407;SDS011;32110;45.724;21.276;2023-03-22T06:15:00;23.30;;;13.35;;
46407;SDS011;32110;45.724;21.276;2023-03-22T06:17:26;25.08;;;15.68;;
46407;SDS011;32110;45.724;21.276;2023-03-22T06:19:51;24.50;;;14.30;;
46407;SDS011;32110;45.724;21.276;2023-03-22T06:22:20;20.73;;;13.35;;
46407;SDS011;32110;45.724;21.276;2023-03-22T06:24:46;34.92;;;14.55;;
46407;SDS011;32110;45.724;21.276;2023-03-22T06:27:12;28.30;;;14.90;;
46407;SDS011;32110;45.724;21.276;2023-03-22T06:29:37;26.92;;;13.15;;
46407;SDS011;32110;45.724;21.276;2023-03-22T06:32:03;20.45;;;13.43;;
46407;SDS011;32110;45.724;21.276;2023-03-22T06:34:29;27.30;;;13.30;;
46407;SDS011;32110;45.724;21.276;2023-03-22T06:36:54;23.63;;;13.13;;
46407;SDS011;32110;45.724;21.276;2023-03-22T06:39:20;24.55;;;12.85;;
46407;SDS011;32110;45.724;21.276;2023-03-22T06:41:46;26.77;;;12.48;;
46407;SDS011;32110;45.724;21.276;2023-03-22T06:44:12;23.38;;;13.25;;
46407;SDS011;32110;45.724;21.276;2023-03-22T06:46:38;22.77;;;12.50;;
46407;SDS011;32110;45.724;21.276;2023-03-22T06:49:03;22.77;;;12.80;;
46407;SDS011;32110;45.724;21.276;2023-03-22T06:51:29;20.25;;;12.80;;
46407;SDS011;32110;45.724;21.276;2023-03-22T06:53:55;24.15;;;12.43;;
46407;SDS011;32110;45.724;21.276;2023-03-22T06:56:20;20.85;;;12.07;;
46407;SDS011;32110;45.724;21.276;2023-03-22T06:58:46;19.15;;;12.00;;
46407;SDS011;32110;45.724;21.276;2023-03-22T07:01:11;20.30;;;11.73;;
46407;SDS011;32110;45.724;21.276;2023-03-22T07:03:37;17.67;;;11.10;;
46407;SDS011;32110;45.724;21.276;2023-03-22T07:06:03;19.77;;;13.00;;
46407;SDS011;32110;45.724;21.276;2023-03-22T07:08:31;24.30;;;12.17;;
46407;SDS011;32110;45.724;21.276;2023-03-22T07:10:57;25.40;;;14.02;;
46407;SDS011;32110;45.724;21.276;2023-03-22T07:13:22;23.90;;;14.25;;
46407;SDS011;32110;45.724;21.276;2023-03-22T07:15:48;23.55;;;15.20;;
46407;SDS011;32110;45.724;21.276;2023-03-22T07:18:13;23.45;;;14.68;;
46407;SDS011;32110;45.724;21.276;2023-03-22T07:20:38;23.00;;;14.43;;
46407;SDS011;32110;45.724;21.276;2023-03-22T07:23:06;23.92;;;14.32;;
46407;SDS011;32110;45.724;21.276;2023-03-22T07:25:32;20.85;;;13.68;;
46407;SDS011;32110;45.724;21.276;2023-03-22T07:27:58;20.38;;;13.20;;
46407;SDS011;32110;45.724;21.276;2023-03-22T07:30:24;20.85;;;13.27;;
46407;SDS011;32110;45.724;21.276;2023-03-22T07:32:50;25.30;;;12.35;;
46407;SDS011;32110;45.724;21.276;2023-03-22T07:35:15;22.55;;;12.02;;
46407;SDS011;32110;45.724;21.276;2023-03-22T07:37:42;20.05;;;11.85;;
46407;SDS011;32110;45.724;21.276;2023-03-22T07:40:08;18.35;;;11.75;;
46407;SDS011;32110;45.724;21.276;2023-03-22T07:42:34;18.45;;;11.60;;
46407;SDS011;32110;45.724;21.276;2023-03-22T07:44:59;24.63;;;12.70;;
46407;SDS011;32110;45.724;21.276;2023-03-22T07:47:25;21.92;;;11.82;;
46407;SDS011;32110;45.724;21.276;2023-03-22T07:49:51;20.23;;;12.80;;
46407;SDS011;32110;45.724;21.276;2023-03-22T07:52:16;17.85;;;12.02;;
46407;SDS011;32110;45.724;21.276;2023-03-22T07:54:42;20.13;;;11.80;;
46407;SDS011;32110;45.724;21.276;2023-03-22T07:57:08;19.52;;;11.82;;
46407;SDS011;32110;45.724;21.276;2023-03-22T07:59:34;25.25;;;12.50;;
46407;SDS011;32110;45.724;21.276;2023-03-22T08:01:59;21.80;;;11.98;;
46407;SDS011;32110;45.724;21.276;2023-03-22T08:04:25;19.27;;;11.73;;
46407;SDS011;32110;45.724;21.276;2023-03-22T08:06:50;22.70;;;12.43;;
46407;SDS011;32110;45.724;21.276;2023-03-22T08:09:16;21.55;;;11.88;;
46407;SDS011;32110;45.724;21.276;2023-03-22T08:11:42;18.67;;;11.68;;
46407;SDS011;32110;45.724;21.276;2023-03-22T08:14:07;21.48;;;12.15;;
46407;SDS011;32110;45.724;21.276;2023-03-22T08:16:33;20.90;;;11.77;;
46407;SDS011;32110;45.724;21.276;2023-03-22T08:18:58;24.33;;;12.75;;
46407;SDS011;32110;45.724;21.276;2023-03-22T08:21:24;23.60;;;12.75;;
46407;SDS011;32110;45.724;21.276;2023-03-22T08:23:50;26.35;;;13.38;;
46407;SDS011;32110;45.724;21.276;2023-03-22T08:26:15;19.88;;;12.82;;
46407;SDS011;32110;45.724;21.276;2023-03-22T08:28:41;23.10;;;13.07;;
46407;SDS011;32110;45.724;21.276;2023-03-22T08:31:14;21.33;;;12.82;;
46407;SDS011;32110;45.724;21.276;2023-03-22T08:33:41;25.52;;;14.48;;
46407;SDS011;32110;45.724;21.276;2023-03-22T08:36:08;23.25;;;12.93;;
46407;SDS011;32110;45.724;21.276;2023-03-22T08:38:37;21.45;;;13.57;;
46407;SDS011;32110;45.724;21.276;2023-03-22T08:41:03;21.67;;;13.13;;
46407;SDS011;32110;45.724;21.276;2023-03-22T08:43:28;19.25;;;13.20;;
46407;SDS011;32110;45.724;21.276;2023-03-22T08:45:54;24.35;;;13.50;;
46407;SDS011;32110;45.724;21.276;2023-03-22T08:48:19;19.27;;;13.45;;
46407;SDS011;32110;45.724;21.276;2023-03-22T08:50:44;19.58;;;13.40;;
46407;SDS011;32110;45.724;21.276;2023-03-22T08:53:10;20.48;;;13.30;;
46407;SDS011;32110;45.724;21.276;2023-03-22T08:55:37;21.02;;;13.30;;
46407;SDS011;32110;45.724;21.276;2023-03-22T08:58:03;18.23;;;12.02;;
46407;SDS011;32110;45.724;21.276;2023-03-22T09:00:29;20.52;;;12.75;;
46407;SDS011;32110;45.724;21.276;2023-03-22T09:02:55;21.08;;;12.65;;
46407;SDS011;32110;45.724;21.276;2023-03-22T09:05:20;20.08;;;12.00;;
46407;SDS011;32110;45.724;21.276;2023-03-22T09:07:49;21.42;;;11.95;;
46407;SDS011;32110;45.724;21.276;2023-03-22T09:10:16;21.92;;;12.52;;
46407;SDS011;32110;45.724;21.276;2023-03-22T09:12:41;21.38;;;11.57;;
46407;SDS011;32110;45.724;21.276;2023-03-22T09:15:07;18.50;;;11.32;;
46407;SDS011;32110;45.724;21.276;2023-03-22T09:17:33;16.17;;;10.23;;
46407;SDS011;32110;45.724;21.276;2023-03-22T09:19:58;20.42;;;10.40;;
46407;SDS011;32110;45.724;21.276;2023-03-22T09:22:24;17.45;;;11.50;;
46407;SDS011;32110;45.724;21.276;2023-03-22T09:24:50;14.80;;;9.63;;
46407;SDS011;32110;45.724;21.276;2023-03-22T09:27:15;16.52;;;10.93;;
46407;SDS011;32110;45.724;21.276;2023-03-22T09:29:41;15.88;;;10.63;;
46407;SDS011;32110;45.724;21.276;2023-03-22T09:32:06;22.30;;;11.00;;
46407;SDS011;32110;45.724;21.276;2023-03-22T09:34:32;15.77;;;9.60;;
46407;SDS011;32110;45.724;21.276;2023-03-22T09:36:57;17.58;;;9.27;;
46407;SDS011;32110;45.724;21.276;2023-03-22T09:39:26;14.50;;;7.75;;
46407;SDS011;32110;45.724;21.276;2023-03-22T09:41:56;17.15;;;8.43;;
46407;SDS011;32110;45.724;21.276;2023-03-22T09:44:29;15.90;;;8.52;;
46407;SDS011;32110;45.724;21.276;2023-03-22T09:46:56;18.35;;;9.18;;
46407;SDS011;32110;45.724;21.276;2023-03-22T09:49:25;17.10;;;9.00;;
46407;SDS011;32110;45.724;21.276;2023-03-22T09:51:57;19.35;;;9.88;;
46407;SDS011;32110;45.724;21.276;2023-03-22T09:54:31;14.05;;;9.07;;
46407;SDS011;32110;45.724;21.276;2023-03-22T10:09:52;13.18;;;8.82;;
46407;SDS011;32110;45.724;21.276;2023-03-22T10:12:27;14.38;;;9.38;;
46407;SDS011;32110;45.724;21.276;2023-03-22T10:17:22;13.02;;;8.63;;
46407;SDS011;32110;45.724;21.276;2023-03-22T10:22:15;14.73;;;8.97;;
46407;SDS011;32110;45.724;21.276;2023-03-22T10:24:41;15.73;;;9.35;;
46407;SDS011;32110;45.724;21.276;2023-03-22T10:27:18;12.30;;;8.85;;
46407;SDS011;32110;45.724;21.276;2023-03-22T10:29:45;15.63;;;8.70;;
46407;SDS011;32110;45.724;21.276;2023-03-22T10:34:39;12.50;;;8.63;;
46407;SDS011;32110;45.724;21.276;2023-03-22T10:37:05;12.52;;;8.77;;
46407;SDS011;32110;45.724;21.276;2023-03-22T10:39:36;16.17;;;8.63;;
46407;SDS011;32110;45.724;21.276;2023-03-22T10:44:46;15.60;;;8.15;;
46407;SDS011;32110;45.724;21.276;2023-03-22T10:47:13;14.43;;;8.77;;
46407;SDS011;32110;45.724;21.276;2023-03-22T10:49:43;13.73;;;8.90;;
46407;SDS011;32110;45.724;21.276;2023-03-22T10:52:19;12.25;;;8.23;;
46407;SDS011;32110;45.724;21.276;2023-03-22T10:54:56;10.55;;;7.50;;
46407;SDS011;32110;45.724;21.276;2023-03-22T10:57:22;12.32;;;7.50;;
46407;SDS011;32110;45.724;21.276;2023-03-22T10:59:50;10.43;;;7.35;;
46407;SDS011;32110;45.724;21.276;2023-03-22T11:02:20;12.30;;;7.55;;
46407;SDS011;32110;45.724;21.276;2023-03-22T11:04:49;10.10;;;7.40;;
46407;SDS011;32110;45.724;21.276;2023-03-22T11:12:34;11.45;;;7.65;;
46407;SDS011;32110;45.724;21.276;2023-03-22T11:15:05;14.68;;;7.93;;
46407;SDS011;32110;45.724;21.276;2023-03-22T11:17:31;12.20;;;8.10;;
46407;SDS011;32110;45.724;21.276;2023-03-22T11:22:25;12.25;;;7.60;;
46407;SDS011;32110;45.724;21.276;2023-03-22T11:24:58;15.27;;;8.80;;
46407;SDS011;32110;45.724;21.276;2023-03-22T11:27:26;13.23;;;8.55;;
46407;SDS011;32110;45.724;21.276;2023-03-22T11:29:57;13.15;;;7.70;;
46407;SDS011;32110;45.724;21.276;2023-03-22T11:32:34;12.70;;;8.45;;
46407;SDS011;32110;45.724;21.276;2023-03-22T11:37:29;9.50;;;7.03;;
46407;SDS011;32110;45.724;21.276;2023-03-22T11:40:01;11.50;;;7.30;;
46407;SDS011;32110;45.724;21.276;2023-03-22T11:42:28;11.85;;;8.10;;
46407;SDS011;32110;45.724;21.276;2023-03-22T11:44:54;9.75;;;7.28;;
46407;SDS011;32110;45.724;21.276;2023-03-22T11:47:20;13.20;;;8.52;;
46407;SDS011;32110;45.724;21.276;2023-03-22T11:49:50;13.68;;;8.07;;
46407;SDS011;32110;45.724;21.276;2023-03-22T11:52:20;13.27;;;7.57;;
46407;SDS011;32110;45.724;21.276;2023-03-22T11:54:48;12.68;;;7.78;;
46407;SDS011;32110;45.724;21.276;2023-03-22T11:57:15;10.80;;;7.95;;
46407;SDS011;32110;45.724;21.276;2023-03-22T12:02:42;12.88;;;8.30;;
46407;SDS011;32110;45.724;21.276;2023-03-22T12:05:31;12.18;;;7.68;;
46407;SDS011;32110;45.724;21.276;2023-03-22T12:08:00;11.80;;;8.50;;
46407;SDS011;32110;45.724;21.276;2023-03-22T12:10:32;12.95;;;8.18;;
46407;SDS011;32110;45.724;21.276;2023-03-22T12:13:50;9.88;;;7.68;;
46407;SDS011;32110;45.724;21.276;2023-03-22T12:16:02;13.95;;;8.52;;
46407;SDS011;32110;45.724;21.276;2023-03-22T12:18:37;12.40;;;7.97;;
46407;SDS011;32110;45.724;21.276;2023-03-22T12:21:09;11.90;;;8.38;;
46407;SDS011;32110;45.724;21.276;2023-03-22T12:23:37;12.05;;;7.82;;
46407;SDS011;32110;45.724;21.276;2023-03-22T12:31:04;13.70;;;8.07;;
46407;SDS011;32110;45.724;21.276;2023-03-22T12:33:48;14.50;;;8.55;;
46407;SDS011;32110;45.724;21.276;2023-03-22T12:36:18;11.07;;;8.23;;
46407;SDS011;32110;45.724;21.276;2023-03-22T12:38:49;11.32;;;7.45;;
46407;SDS011;32110;45.724;21.276;2023-03-22T12:41:24;14.95;;;7.90;;
46407;SDS011;32110;45.724;21.276;2023-03-22T12:46:35;8.07;;;6.53;;
46407;SDS011;32110;45.724;21.276;2023-03-22T12:51:43;12.70;;;7.03;;
46407;SDS011;32110;45.724;21.276;2023-03-22T12:54:10;11.93;;;7.70;;
46407;SDS011;32110;45.724;21.276;2023-03-22T12:56:40;12.17;;;8.13;;
46407;SDS011;32110;45.724;21.276;2023-03-22T12:59:28;16.55;;;7.97;;
46407;SDS011;32110;45.724;21.276;2023-03-22T13:09:55;12.27;;;7.87;;
46407;SDS011;32110;45.724;21.276;2023-03-22T13:17:38;14.05;;;7.88;;
46407;SDS011;32110;45.724;21.276;2023-03-22T13:27:34;9.75;;;7.30;;
46407;SDS011;32110;45.724;21.276;2023-03-22T13:30:02;10.68;;;7.20;;
46407;SDS011;32110;45.724;21.276;2023-03-22T13:32:31;12.38;;;6.80;;
46407;SDS011;32110;45.724;21.276;2023-03-22T13:35:01;13.02;;;6.75;;
46407;SDS011;32110;45.724;21.276;2023-03-22T13:39:55;9.18;;;5.47;;
46407;SDS011;32110;45.724;21.276;2023-03-22T13:42:44;10.57;;;6.53;;
46407;SDS011;32110;45.724;21.276;2023-03-22T13:45:26;12.02;;;7.97;;
46407;SDS011;32110;45.724;21.276;2023-03-22T13:50:31;8.25;;;6.50;;
46407;SDS011;32110;45.724;21.276;2023-03-22T13:53:00;9.00;;;5.88;;
46407;SDS011;32110;45.724;21.276;2023-03-22T13:58:08;8.02;;;5.70;;
46407;SDS011;32110;45.724;21.276;2023-03-22T14:00:36;9.02;;;5.78;;
46407;SDS011;32110;45.724;21.276;2023-03-22T14:03:05;7.03;;;5.63;;
46407;SDS011;32110;45.724;21.276;2023-03-22T14:05:40;8.90;;;5.60;;
46407;SDS011;32110;45.724;21.276;2023-03-22T14:08:16;7.55;;;5.95;;
46407;SDS011;32110;45.724;21.276;2023-03-22T14:11:35;11.57;;;5.50;;
46407;SDS011;32110;45.724;21.276;2023-03-22T14:13:52;10.00;;;5.57;;
46407;SDS011;32110;45.724;21.276;2023-03-22T14:16:32;9.60;;;5.50;;
46407;SDS011;32110;45.724;21.276;2023-03-22T14:19:03;15.63;;;7.65;;
46407;SDS011;32110;45.724;21.276;2023-03-22T14:21:32;8.30;;;5.35;;
46407;SDS011;32110;45.724;21.276;2023-03-22T14:24:11;13.48;;;6.20;;
46407;SDS011;32110;45.724;21.276;2023-03-22T14:26:39;6.55;;;5.00;;
46407;SDS011;32110;45.724;21.276;2023-03-22T14:31:37;6.05;;;4.40;;
46407;SDS011;32110;45.724;21.276;2023-03-22T14:34:05;9.82;;;5.80;;
46407;SDS011;32110;45.724;21.276;2023-03-22T14:36:35;6.05;;;4.70;;
46407;SDS011;32110;45.724;21.276;2023-03-22T14:39:11;6.93;;;5.20;;
46407;SDS011;32110;45.724;21.276;2023-03-22T14:44:26;7.13;;;4.60;;
46407;SDS011;32110;45.724;21.276;2023-03-22T14:47:00;7.13;;;4.65;;
46407;SDS011;32110;45.724;21.276;2023-03-22T14:49:28;8.32;;;4.95;;
46407;SDS011;32110;45.724;21.276;2023-03-22T14:51:55;15.00;;;5.68;;
46407;SDS011;32110;45.724;21.276;2023-03-22T14:54:21;6.78;;;5.22;;
46407;SDS011;32110;45.724;21.276;2023-03-22T14:56:50;6.88;;;5.03;;
46407;SDS011;32110;45.724;21.276;2023-03-22T14:59:17;9.48;;;5.78;;
46407;SDS011;32110;45.724;21.276;2023-03-22T15:01:49;9.50;;;5.88;;
46407;SDS011;32110;45.724;21.276;2023-03-22T15:04:18;10.65;;;5.80;;
46407;SDS011;32110;45.724;21.276;2023-03-22T15:06:46;7.97;;;5.53;;
46407;SDS011;32110;45.724;21.276;2023-03-22T15:09:16;13.77;;;6.55;;
46407;SDS011;32110;45.724;21.276;2023-03-22T15:11:44;9.00;;;5.77;;
46407;SDS011;32110;45.724;21.276;2023-03-22T15:14:12;9.30;;;5.80;;
46407;SDS011;32110;45.724;21.276;2023-03-22T15:16:38;14.73;;;8.10;;
46407;SDS011;32110;45.724;21.276;2023-03-22T15:19:07;13.43;;;7.43;;
46407;SDS011;32110;45.724;21.276;2023-03-22T15:26:53;9.88;;;5.40;;
46407;SDS011;32110;45.724;21.276;2023-03-22T15:29:20;9.23;;;5.47;;
46407;SDS011;32110;45.724;21.276;2023-03-22T15:31:49;8.23;;;5.65;;
46407;SDS011;32110;45.724;21.276;2023-03-22T15:34:20;7.80;;;5.32;;
46407;SDS011;32110;45.724;21.276;2023-03-22T15:36:49;6.88;;;5.00;;
46407;SDS011;32110;45.724;21.276;2023-03-22T15:39:19;7.18;;;5.13;;
46407;SDS011;32110;45.724;21.276;2023-03-22T15:41:53;9.07;;;5.25;;
46407;SDS011;32110;45.724;21.276;2023-03-22T15:46:55;8.15;;;4.65;;
46407;SDS011;32110;45.724;21.276;2023-03-22T15:49:43;8.43;;;4.78;;
46407;SDS011;32110;45.724;21.276;2023-03-22T15:54:40;9.57;;;5.18;;
46407;SDS011;32110;45.724;21.276;2023-03-22T15:57:16;9.68;;;7.78;;
46407;SDS011;32110;45.724;21.276;2023-03-22T15:59:51;13.95;;;6.55;;
46407;SDS011;32110;45.724;21.276;2023-03-22T16:02:23;10.43;;;5.57;;
46407;SDS011;32110;45.724;21.276;2023-03-22T16:04:56;10.05;;;5.88;;
46407;SDS011;32110;45.724;21.276;2023-03-22T16:07:23;7.28;;;5.30;;
46407;SDS011;32110;45.724;21.276;2023-03-22T16:09:50;11.27;;;5.50;;
46407;SDS011;32110;45.724;21.276;2023-03-22T16:12:17;10.73;;;5.35;;
46407;SDS011;32110;45.724;21.276;2023-03-22T16:14:43;11.82;;;6.20;;
46407;SDS011;32110;45.724;21.276;2023-03-22T16:17:12;9.30;;;6.68;;
46407;SDS011;32110;45.724;21.276;2023-03-22T16:19:40;8.65;;;5.70;;
46407;SDS011;32110;45.724;21.276;2023-03-22T16:22:08;8.48;;;5.50;;
46407;SDS011;32110;45.724;21.276;2023-03-22T16:27:00;9.77;;;5.13;;
46407;SDS011;32110;45.724;21.276;2023-03-22T16:29:25;13.05;;;7.70;;
46407;SDS011;32110;45.724;21.276;2023-03-22T16:31:51;17.67;;;6.97;;
46407;SDS011;32110;45.724;21.276;2023-03-22T16:34:16;18.23;;;8.25;;
46407;SDS011;32110;45.724;21.276;2023-03-22T16:36:43;10.45;;;6.75;;
46407;SDS011;32110;45.724;21.276;2023-03-22T16:39:08;10.82;;;6.90;;
46407;SDS011;32110;45.724;21.276;2023-03-22T16:41:33;11.73;;;6.90;;
46407;SDS011;32110;45.724;21.276;2023-03-22T16:44:03;13.75;;;6.75;;